Terminal Aerodrome Forecast
Issued by NWS Charleston, WV

Current Version | Previous Version | Text Only | Print | Product List | Glossary Off
Versions: 1 2 3 4 5 6 7 8 9 10 11 12 13 14 15 16 17 18 19 20 21 22

953
FTUS41 KRLX 250853 AAA
TAFCRW
TAF AMD
KCRW 250853Z 2509/2606 00000KT P6SM SKC
     FM251000 00000KT 6SM BR FEW001
     FM251400 00000KT P6SM SKC=

USA.gov is the U.S. government's official web portal to all federal, state and local government web resources and services.